Route Details

Aircraft Information
Group: European Fleet
Types: A30F, A31F, B738
Route Data
Distance: 1064nm
Duration: 2h 35m
Origin METAR: LTFM 072350Z 01018G28KT 0800 R35R/P1500N R17L/P1500D R34L/1000D R36/P1500N -SHSN SCT004 FEW015TCU BKN022 00/M03 Q1031 NOSIG RMK RWY17L 01022KT RWY34L 35018KT RWY16R 36018G28KT RWY36 36019KT RWY18 36020G30KT
Dest. METAR: EDDK 072350Z AUTO VRB01KT CAVOK M03/M07 Q1039 NOSIG
Freight Data
(for Feb 8, 2023)
Load Factor:
50%
Manifested Cargo: 46,362lbs
Financial History
Total Freight: 272,462lbs
Average Load: 0lbs/flt
Fuel Used: 128,891lbs
Avg. Fuel Used: 0lbs/flt
Fuel Expense: $48,070
Avg. Fuel Expense: $0
Avg. Fuel Cost: $0/lbs
Total Gross Income: $693,337
Pilot Pay: $1,036
Total Expenses: $92,656
Total Revenue: $549,369
Average Revenue: $0

Capitol Logistics 591




LTFM
Istanbul Airport
Istanbul, TR
EDDK
Cologne Bonn Airport
Cologne, DE